KACB/ACB METAR and TAF weather

Enter ICAO airport designator
Station Type Date Time Source
KACB METAR 2018/01/19 17:35 UTC NOAA

KACB 191735Z AUTO 21006KT 10SM CLR 02/M02 A2969 RMK AO2 T00221020


Station Type Date Time Source
KACB Decoded METAR 2018/01/19 17:35 UTC NOAA

Bellaire, Antrim County Airport, MI, United States (KACB) 44-59-18N 085-11-54W
Jan 19, 2018 - 12:35 PM EST / 2018.01.19 1735 UTC
Wind: from the SSW (210 degrees) at 7 MPH (6 KT):0
Visibility: 10 mile(s):0
Sky conditions: clear
Temperature: 36.0 F (2.2 C)
Dew Point: 28.4 F (-2.0 C)
Relative Humidity: 73%
Pressure (altimeter): 29.69 in. Hg (1005 hPa)
ob: KACB 191735Z AUTO 21006KT 10SM CLR 02/M02 A2969 RMK AO2 T00221020
cycle: 17

Station Type Date Time Source
KACB TAF UTC NOAA

Error!


Example: see airport list